sensor_id;sensor_type;location;lat;lon;timestamp;P1;durP1;ratioP1;P2;durP2;ratioP2
59024;SDS011;44806;48.008;13.666;2023-05-10T00:01:36;5.65;;;2.20;;
59024;SDS011;44806;48.008;13.666;2023-05-10T00:04:03;4.95;;;2.00;;
59024;SDS011;44806;48.008;13.666;2023-05-10T00:06:30;7.30;;;2.85;;
59024;SDS011;44806;48.008;13.666;2023-05-10T00:08:57;5.07;;;2.20;;
59024;SDS011;44806;48.008;13.666;2023-05-10T00:11:24;5.38;;;2.35;;
59024;SDS011;44806;48.008;13.666;2023-05-10T00:13:53;5.88;;;2.03;;
59024;SDS011;44806;48.008;13.666;2023-05-10T00:16:20;6.05;;;2.45;;
59024;SDS011;44806;48.008;13.666;2023-05-10T00:18:47;3.95;;;1.65;;
59024;SDS011;44806;48.008;13.666;2023-05-10T00:21:13;5.80;;;2.17;;
59024;SDS011;44806;48.008;13.666;2023-05-10T00:23:40;6.90;;;2.20;;
59024;SDS011;44806;48.008;13.666;2023-05-10T00:26:07;5.25;;;2.13;;
59024;SDS011;44806;48.008;13.666;2023-05-10T00:28:34;5.63;;;2.35;;
59024;SDS011;44806;48.008;13.666;2023-05-10T00:31:03;4.93;;;2.17;;
59024;SDS011;44806;48.008;13.666;2023-05-10T00:33:30;6.43;;;2.72;;
59024;SDS011;44806;48.008;13.666;2023-05-10T00:35:57;7.70;;;2.20;;
59024;SDS011;44806;48.008;13.666;2023-05-10T00:38:24;5.18;;;2.10;;
59024;SDS011;44806;48.008;13.666;2023-05-10T00:40:51;4.90;;;1.80;;
59024;SDS011;44806;48.008;13.666;2023-05-10T00:43:18;5.30;;;1.88;;
59024;SDS011;44806;48.008;13.666;2023-05-10T00:45:45;5.10;;;2.20;;
59024;SDS011;44806;48.008;13.666;2023-05-10T00:48:14;7.28;;;2.22;;
59024;SDS011;44806;48.008;13.666;2023-05-10T00:50:41;7.50;;;2.13;;
59024;SDS011;44806;48.008;13.666;2023-05-10T00:53:08;6.05;;;1.92;;
59024;SDS011;44806;48.008;13.666;2023-05-10T00:55:35;5.78;;;2.13;;
59024;SDS011;44806;48.008;13.666;2023-05-10T00:58:02;5.00;;;2.25;;
59024;SDS011;44806;48.008;13.666;2023-05-10T01:00:29;6.05;;;2.17;;
59024;SDS011;44806;48.008;13.666;2023-05-10T01:02:58;4.20;;;1.92;;
59024;SDS011;44806;48.008;13.666;2023-05-10T01:05:27;5.63;;;2.13;;
59024;SDS011;44806;48.008;13.666;2023-05-10T01:07:54;6.00;;;2.13;;
59024;SDS011;44806;48.008;13.666;2023-05-10T01:10:22;4.70;;;2.20;;
59024;SDS011;44806;48.008;13.666;2023-05-10T01:12:49;5.65;;;2.45;;
59024;SDS011;44806;48.008;13.666;2023-05-10T01:15:16;6.90;;;2.42;;
59024;SDS011;44806;48.008;13.666;2023-05-10T01:17:44;4.75;;;1.90;;
59024;SDS011;44806;48.008;13.666;2023-05-10T01:20:13;5.82;;;2.38;;
59024;SDS011;44806;48.008;13.666;2023-05-10T01:26:08;4.45;;;1.88;;
59024;SDS011;44806;48.008;13.666;2023-05-10T01:28:58;5.60;;;2.65;;
59024;SDS011;44806;48.008;13.666;2023-05-10T01:34:42;4.35;;;2.13;;
59024;SDS011;44806;48.008;13.666;2023-05-10T01:37:15;7.00;;;2.58;;
59024;SDS011;44806;48.008;13.666;2023-05-10T01:39:48;6.10;;;2.42;;
59024;SDS011;44806;48.008;13.666;2023-05-10T01:42:21;6.15;;;2.85;;
59024;SDS011;44806;48.008;13.666;2023-05-10T01:44:53;6.72;;;2.58;;
59024;SDS011;44806;48.008;13.666;2023-05-10T01:47:27;4.70;;;1.60;;
59024;SDS011;44806;48.008;13.666;2023-05-10T01:49:58;4.53;;;2.03;;
59024;SDS011;44806;48.008;13.666;2023-05-10T01:52:30;5.93;;;2.00;;
59024;SDS011;44806;48.008;13.666;2023-05-10T01:54:59;5.35;;;2.10;;
59024;SDS011;44806;48.008;13.666;2023-05-10T01:57:31;5.45;;;2.33;;
59024;SDS011;44806;48.008;13.666;2023-05-10T02:00:01;4.90;;;1.95;;
59024;SDS011;44806;48.008;13.666;2023-05-10T02:02:31;6.47;;;2.65;;
59024;SDS011;44806;48.008;13.666;2023-05-10T02:05:03;5.40;;;2.33;;
59024;SDS011;44806;48.008;13.666;2023-05-10T02:07:33;6.55;;;2.17;;
59024;SDS011;44806;48.008;13.666;2023-05-10T02:10:02;4.45;;;2.03;;
59024;SDS011;44806;48.008;13.666;2023-05-10T02:12:32;9.35;;;2.63;;
59024;SDS011;44806;48.008;13.666;2023-05-10T02:15:02;6.22;;;2.60;;
59024;SDS011;44806;48.008;13.666;2023-05-10T02:17:33;5.68;;;2.13;;
59024;SDS011;44806;48.008;13.666;2023-05-10T02:20:01;5.65;;;2.20;;
59024;SDS011;44806;48.008;13.666;2023-05-10T02:22:32;6.28;;;2.35;;
59024;SDS011;44806;48.008;13.666;2023-05-10T02:25:01;4.93;;;2.28;;
59024;SDS011;44806;48.008;13.666;2023-05-10T02:27:29;6.68;;;2.13;;
59024;SDS011;44806;48.008;13.666;2023-05-10T02:29:56;7.47;;;2.92;;
59024;SDS011;44806;48.008;13.666;2023-05-10T02:32:25;12.30;;;3.05;;
59024;SDS011;44806;48.008;13.666;2023-05-10T02:34:55;5.63;;;2.22;;
59024;SDS011;44806;48.008;13.666;2023-05-10T02:37:23;7.55;;;3.05;;
59024;SDS011;44806;48.008;13.666;2023-05-10T02:39:52;5.35;;;2.55;;
59024;SDS011;44806;48.008;13.666;2023-05-10T02:42:23;5.18;;;2.00;;
59024;SDS011;44806;48.008;13.666;2023-05-10T02:44:52;4.47;;;2.00;;
59024;SDS011;44806;48.008;13.666;2023-05-10T02:47:21;5.03;;;2.35;;
59024;SDS011;44806;48.008;13.666;2023-05-10T02:49:48;5.30;;;2.10;;
59024;SDS011;44806;48.008;13.666;2023-05-10T02:52:19;6.70;;;2.00;;
59024;SDS011;44806;48.008;13.666;2023-05-10T02:54:52;4.65;;;1.90;;
59024;SDS011;44806;48.008;13.666;2023-05-10T02:57:22;6.80;;;2.83;;
59024;SDS011;44806;48.008;13.666;2023-05-10T02:59:53;5.93;;;2.65;;
59024;SDS011;44806;48.008;13.666;2023-05-10T03:02:21;6.50;;;2.42;;
59024;SDS011;44806;48.008;13.666;2023-05-10T03:04:48;7.65;;;2.42;;
59024;SDS011;44806;48.008;13.666;2023-05-10T03:07:16;6.90;;;2.50;;
59024;SDS011;44806;48.008;13.666;2023-05-10T03:09:46;5.75;;;2.88;;
59024;SDS011;44806;48.008;13.666;2023-05-10T03:12:14;5.50;;;2.30;;
59024;SDS011;44806;48.008;13.666;2023-05-10T03:14:49;9.32;;;3.50;;
59024;SDS011;44806;48.008;13.666;2023-05-10T03:17:25;5.63;;;2.85;;
59024;SDS011;44806;48.008;13.666;2023-05-10T03:19:57;7.15;;;2.45;;
59024;SDS011;44806;48.008;13.666;2023-05-10T03:22:31;6.70;;;3.17;;
59024;SDS011;44806;48.008;13.666;2023-05-10T03:25:04;5.78;;;2.80;;
59024;SDS011;44806;48.008;13.666;2023-05-10T03:27:33;5.88;;;2.88;;
59024;SDS011;44806;48.008;13.666;2023-05-10T03:30:03;6.50;;;2.97;;
59024;SDS011;44806;48.008;13.666;2023-05-10T03:32:32;6.05;;;2.67;;
59024;SDS011;44806;48.008;13.666;2023-05-10T03:34:59;11.95;;;2.88;;
59024;SDS011;44806;48.008;13.666;2023-05-10T03:37:27;5.97;;;2.72;;
59024;SDS011;44806;48.008;13.666;2023-05-10T03:39:55;8.02;;;3.05;;
59024;SDS011;44806;48.008;13.666;2023-05-10T03:42:22;6.13;;;2.58;;
59024;SDS011;44806;48.008;13.666;2023-05-10T03:44:49;5.30;;;2.42;;
59024;SDS011;44806;48.008;13.666;2023-05-10T03:47:16;7.30;;;2.80;;
59024;SDS011;44806;48.008;13.666;2023-05-10T03:49:43;5.38;;;2.33;;
59024;SDS011;44806;48.008;13.666;2023-05-10T03:52:10;3.75;;;1.77;;
59024;SDS011;44806;48.008;13.666;2023-05-10T03:54:37;5.45;;;2.40;;
59024;SDS011;44806;48.008;13.666;2023-05-10T03:57:05;8.15;;;1.85;;
59024;SDS011;44806;48.008;13.666;2023-05-10T03:59:32;4.40;;;1.67;;
59024;SDS011;44806;48.008;13.666;2023-05-10T04:01:59;7.60;;;2.45;;
59024;SDS011;44806;48.008;13.666;2023-05-10T04:04:26;4.85;;;2.13;;
59024;SDS011;44806;48.008;13.666;2023-05-10T04:06:53;5.75;;;2.50;;
59024;SDS011;44806;48.008;13.666;2023-05-10T04:09:20;6.75;;;2.50;;
59024;SDS011;44806;48.008;13.666;2023-05-10T04:11:47;9.88;;;2.08;;
59024;SDS011;44806;48.008;13.666;2023-05-10T04:14:15;4.18;;;1.42;;
59024;SDS011;44806;48.008;13.666;2023-05-10T04:16:42;3.78;;;1.33;;
59024;SDS011;44806;48.008;13.666;2023-05-10T04:19:09;11.18;;;2.38;;
59024;SDS011;44806;48.008;13.666;2023-05-10T04:21:36;3.92;;;1.42;;
59024;SDS011;44806;48.008;13.666;2023-05-10T04:24:03;5.55;;;1.70;;
59024;SDS011;44806;48.008;13.666;2023-05-10T04:26:31;3.78;;;1.45;;
59024;SDS011;44806;48.008;13.666;2023-05-10T04:28:57;5.28;;;1.67;;
59024;SDS011;44806;48.008;13.666;2023-05-10T04:31:26;5.10;;;1.63;;
59024;SDS011;44806;48.008;13.666;2023-05-10T04:33:53;6.50;;;1.35;;
59024;SDS011;44806;48.008;13.666;2023-05-10T04:36:20;3.60;;;1.67;;
59024;SDS011;44806;48.008;13.666;2023-05-10T04:38:47;3.10;;;1.05;;
59024;SDS011;44806;48.008;13.666;2023-05-10T04:41:14;4.10;;;1.40;;
59024;SDS011;44806;48.008;13.666;2023-05-10T04:43:41;2.95;;;1.20;;
59024;SDS011;44806;48.008;13.666;2023-05-10T04:46:08;4.03;;;1.23;;
59024;SDS011;44806;48.008;13.666;2023-05-10T04:48:36;3.35;;;1.13;;
59024;SDS011;44806;48.008;13.666;2023-05-10T04:51:03;4.13;;;1.33;;
59024;SDS011;44806;48.008;13.666;2023-05-10T04:53:31;4.25;;;1.58;;
59024;SDS011;44806;48.008;13.666;2023-05-10T04:55:58;3.35;;;1.23;;
59024;SDS011;44806;48.008;13.666;2023-05-10T04:58:25;7.18;;;2.08;;
59024;SDS011;44806;48.008;13.666;2023-05-10T05:00:52;4.65;;;1.17;;
59024;SDS011;44806;48.008;13.666;2023-05-10T05:03:19;3.58;;;1.52;;
59024;SDS011;44806;48.008;13.666;2023-05-10T05:05:48;5.03;;;1.83;;
59024;SDS011;44806;48.008;13.666;2023-05-10T05:08:15;4.55;;;1.73;;
59024;SDS011;44806;48.008;13.666;2023-05-10T05:10:42;3.17;;;1.13;;
59024;SDS011;44806;48.008;13.666;2023-05-10T05:13:09;2.95;;;1.10;;
59024;SDS011;44806;48.008;13.666;2023-05-10T05:15:38;3.80;;;1.30;;
59024;SDS011;44806;48.008;13.666;2023-05-10T05:18:05;4.97;;;1.50;;
59024;SDS011;44806;48.008;13.666;2023-05-10T05:20:32;3.38;;;1.45;;
59024;SDS011;44806;48.008;13.666;2023-05-10T05:23:00;2.88;;;1.05;;
59024;SDS011;44806;48.008;13.666;2023-05-10T05:25:27;6.90;;;1.50;;
59024;SDS011;44806;48.008;13.666;2023-05-10T05:27:54;3.80;;;1.40;;
59024;SDS011;44806;48.008;13.666;2023-05-10T05:30:21;3.42;;;1.50;;
59024;SDS011;44806;48.008;13.666;2023-05-10T05:32:48;2.88;;;1.00;;
59024;SDS011;44806;48.008;13.666;2023-05-10T05:35:15;2.72;;;0.75;;
59024;SDS011;44806;48.008;13.666;2023-05-10T05:37:42;3.35;;;1.20;;
59024;SDS011;44806;48.008;13.666;2023-05-10T05:40:13;3.80;;;1.20;;
59024;SDS011;44806;48.008;13.666;2023-05-10T05:42:40;2.97;;;1.23;;
59024;SDS011;44806;48.008;13.666;2023-05-10T05:45:07;4.15;;;1.35;;
59024;SDS011;44806;48.008;13.666;2023-05-10T05:47:37;3.38;;;1.27;;
59024;SDS011;44806;48.008;13.666;2023-05-10T05:50:05;3.28;;;1.40;;
59024;SDS011;44806;48.008;13.666;2023-05-10T05:52:32;3.65;;;1.67;;
59024;SDS011;44806;48.008;13.666;2023-05-10T05:54:59;3.78;;;1.25;;
59024;SDS011;44806;48.008;13.666;2023-05-10T05:57:27;2.33;;;0.73;;
59024;SDS011;44806;48.008;13.666;2023-05-10T05:59:54;2.10;;;0.80;;
59024;SDS011;44806;48.008;13.666;2023-05-10T06:02:21;3.65;;;1.33;;
59024;SDS011;44806;48.008;13.666;2023-05-10T06:04:48;4.40;;;1.40;;
59024;SDS011;44806;48.008;13.666;2023-05-10T06:07:15;3.30;;;0.80;;
59024;SDS011;44806;48.008;13.666;2023-05-10T06:09:42;4.32;;;1.05;;
59024;SDS011;44806;48.008;13.666;2023-05-10T06:12:09;3.65;;;0.90;;
59024;SDS011;44806;48.008;13.666;2023-05-10T06:14:38;2.92;;;1.00;;
59024;SDS011;44806;48.008;13.666;2023-05-10T06:17:04;2.92;;;0.95;;
59024;SDS011;44806;48.008;13.666;2023-05-10T06:19:31;2.15;;;0.77;;
59024;SDS011;44806;48.008;13.666;2023-05-10T06:21:58;4.78;;;0.98;;
59024;SDS011;44806;48.008;13.666;2023-05-10T06:24:26;3.13;;;1.02;;
59024;SDS011;44806;48.008;13.666;2023-05-10T06:26:53;1.80;;;0.57;;
59024;SDS011;44806;48.008;13.666;2023-05-10T06:29:20;2.60;;;0.82;;
59024;SDS011;44806;48.008;13.666;2023-05-10T06:31:48;2.33;;;0.75;;
59024;SDS011;44806;48.008;13.666;2023-05-10T06:34:15;2.03;;;0.73;;
59024;SDS011;44806;48.008;13.666;2023-05-10T06:36:42;3.80;;;0.82;;
59024;SDS011;44806;48.008;13.666;2023-05-10T06:39:09;1.52;;;0.70;;
59024;SDS011;44806;48.008;13.666;2023-05-10T06:41:37;3.05;;;0.77;;
59024;SDS011;44806;48.008;13.666;2023-05-10T06:44:04;3.22;;;0.80;;
59024;SDS011;44806;48.008;13.666;2023-05-10T06:46:30;2.97;;;0.80;;
59024;SDS011;44806;48.008;13.666;2023-05-10T06:48:59;2.47;;;0.82;;
59024;SDS011;44806;48.008;13.666;2023-05-10T06:51:26;3.58;;;1.17;;
59024;SDS011;44806;48.008;13.666;2023-05-10T06:53:53;3.13;;;0.90;;
59024;SDS011;44806;48.008;13.666;2023-05-10T06:56:19;4.10;;;1.17;;
59024;SDS011;44806;48.008;13.666;2023-05-10T06:58:46;3.70;;;1.08;;
59024;SDS011;44806;48.008;13.666;2023-05-10T07:01:14;5.60;;;1.33;;
59024;SDS011;44806;48.008;13.666;2023-05-10T07:03:41;5.28;;;1.20;;
59024;SDS011;44806;48.008;13.666;2023-05-10T07:06:09;3.97;;;1.23;;
59024;SDS011;44806;48.008;13.666;2023-05-10T07:08:37;2.90;;;1.10;;
59024;SDS011;44806;48.008;13.666;2023-05-10T07:11:04;3.25;;;1.42;;
59024;SDS011;44806;48.008;13.666;2023-05-10T07:13:32;2.78;;;1.27;;
59024;SDS011;44806;48.008;13.666;2023-05-10T07:16:00;2.72;;;1.30;;
59024;SDS011;44806;48.008;13.666;2023-05-10T07:18:28;4.57;;;1.95;;
59024;SDS011;44806;48.008;13.666;2023-05-10T07:20:55;4.65;;;1.63;;
59024;SDS011;44806;48.008;13.666;2023-05-10T07:23:27;2.53;;;1.10;;
59024;SDS011;44806;48.008;13.666;2023-05-10T07:25:55;4.45;;;1.70;;
59024;SDS011;44806;48.008;13.666;2023-05-10T07:28:22;3.35;;;1.55;;
59024;SDS011;44806;48.008;13.666;2023-05-10T07:30:50;4.25;;;1.48;;
59024;SDS011;44806;48.008;13.666;2023-05-10T07:33:17;3.35;;;1.17;;
59024;SDS011;44806;48.008;13.666;2023-05-10T07:35:44;4.13;;;1.38;;
59024;SDS011;44806;48.008;13.666;2023-05-10T07:38:11;5.35;;;1.85;;
59024;SDS011;44806;48.008;13.666;2023-05-10T07:40:39;3.85;;;1.42;;
59024;SDS011;44806;48.008;13.666;2023-05-10T07:43:06;3.53;;;1.25;;
59024;SDS011;44806;48.008;13.666;2023-05-10T07:45:33;3.50;;;1.10;;
59024;SDS011;44806;48.008;13.666;2023-05-10T07:48:00;4.32;;;1.65;;
59024;SDS011;44806;48.008;13.666;2023-05-10T07:50:27;4.10;;;1.50;;
59024;SDS011;44806;48.008;13.666;2023-05-10T07:52:54;6.70;;;1.50;;
59024;SDS011;44806;48.008;13.666;2023-05-10T07:55:21;10.82;;;1.88;;
59024;SDS011;44806;48.008;13.666;2023-05-10T07:57:50;5.88;;;2.25;;
59024;SDS011;44806;48.008;13.666;2023-05-10T08:00:17;5.10;;;1.88;;
59024;SDS011;44806;48.008;13.666;2023-05-10T08:02:45;5.22;;;2.17;;
59024;SDS011;44806;48.008;13.666;2023-05-10T08:05:12;5.22;;;1.58;;
59024;SDS011;44806;48.008;13.666;2023-05-10T08:07:39;8.57;;;2.22;;
59024;SDS011;44806;48.008;13.666;2023-05-10T08:10:08;2.55;;;1.27;;
59024;SDS011;44806;48.008;13.666;2023-05-10T08:12:36;3.47;;;1.50;;
59024;SDS011;44806;48.008;13.666;2023-05-10T08:15:05;5.63;;;2.03;;
59024;SDS011;44806;48.008;13.666;2023-05-10T08:17:33;5.38;;;2.25;;
59024;SDS011;44806;48.008;13.666;2023-05-10T08:20:00;6.80;;;2.30;;
59024;SDS011;44806;48.008;13.666;2023-05-10T08:22:26;6.55;;;1.90;;
59024;SDS011;44806;48.008;13.666;2023-05-10T08:24:53;4.88;;;2.15;;
59024;SDS011;44806;48.008;13.666;2023-05-10T08:27:20;6.05;;;2.13;;
59024;SDS011;44806;48.008;13.666;2023-05-10T08:29:47;7.38;;;2.72;;
59024;SDS011;44806;48.008;13.666;2023-05-10T08:32:16;4.38;;;2.00;;
59024;SDS011;44806;48.008;13.666;2023-05-10T08:34:43;5.75;;;2.60;;
59024;SDS011;44806;48.008;13.666;2023-05-10T08:37:10;4.63;;;2.20;;
59024;SDS011;44806;48.008;13.666;2023-05-10T08:39:38;6.30;;;1.73;;
59024;SDS011;44806;48.008;13.666;2023-05-10T08:42:05;5.78;;;2.33;;
59024;SDS011;44806;48.008;13.666;2023-05-10T08:44:34;5.05;;;2.17;;
59024;SDS011;44806;48.008;13.666;2023-05-10T08:47:04;5.18;;;2.03;;
59024;SDS011;44806;48.008;13.666;2023-05-10T08:49:34;5.13;;;1.92;;
59024;SDS011;44806;48.008;13.666;2023-05-10T08:52:02;7.05;;;2.63;;
59024;SDS011;44806;48.008;13.666;2023-05-10T08:54:31;5.60;;;2.83;;
59024;SDS011;44806;48.008;13.666;2023-05-10T08:56:58;5.82;;;2.70;;
59024;SDS011;44806;48.008;13.666;2023-05-10T08:59:25;4.53;;;2.05;;
59024;SDS011;44806;48.008;13.666;2023-05-10T09:01:53;6.88;;;2.72;;
59024;SDS011;44806;48.008;13.666;2023-05-10T09:04:21;5.80;;;2.25;;
59024;SDS011;44806;48.008;13.666;2023-05-10T09:06:50;5.78;;;2.30;;
59024;SDS011;44806;48.008;13.666;2023-05-10T09:09:18;4.78;;;2.55;;
59024;SDS011;44806;48.008;13.666;2023-05-10T09:11:49;6.25;;;2.08;;
59024;SDS011;44806;48.008;13.666;2023-05-10T09:14:16;7.10;;;2.47;;
59024;SDS011;44806;48.008;13.666;2023-05-10T09:16:44;5.13;;;2.22;;
59024;SDS011;44806;48.008;13.666;2023-05-10T09:19:11;7.13;;;2.63;;
59024;SDS011;44806;48.008;13.666;2023-05-10T09:21:38;8.60;;;2.10;;
59024;SDS011;44806;48.008;13.666;2023-05-10T09:24:07;5.20;;;1.80;;
59024;SDS011;44806;48.008;13.666;2023-05-10T09:26:35;6.93;;;2.53;;
59024;SDS011;44806;48.008;13.666;2023-05-10T09:29:11;4.28;;;1.60;;
59024;SDS011;44806;48.008;13.666;2023-05-10T09:31:45;5.40;;;1.85;;
59024;SDS011;44806;48.008;13.666;2023-05-10T09:34:16;4.63;;;1.67;;
59024;SDS011;44806;48.008;13.666;2023-05-10T09:36:53;4.55;;;1.83;;
59024;SDS011;44806;48.008;13.666;2023-05-10T09:39:29;4.07;;;1.85;;
59024;SDS011;44806;48.008;13.666;2023-05-10T09:41:57;5.53;;;2.00;;
59024;SDS011;44806;48.008;13.666;2023-05-10T09:44:25;5.85;;;2.13;;
59024;SDS011;44806;48.008;13.666;2023-05-10T09:46:52;4.10;;;1.65;;
59024;SDS011;44806;48.008;13.666;2023-05-10T09:49:20;5.20;;;1.80;;
59024;SDS011;44806;48.008;13.666;2023-05-10T09:51:47;5.47;;;1.65;;
59024;SDS011;44806;48.008;13.666;2023-05-10T09:54:23;3.00;;;1.20;;
59024;SDS011;44806;48.008;13.666;2023-05-10T09:56:52;4.45;;;1.58;;
59024;SDS011;44806;48.008;13.666;2023-05-10T09:59:19;6.03;;;1.80;;
59024;SDS011;44806;48.008;13.666;2023-05-10T10:01:49;4.78;;;1.65;;
59024;SDS011;44806;48.008;13.666;2023-05-10T10:04:16;5.57;;;1.35;;
59024;SDS011;44806;48.008;13.666;2023-05-10T10:06:43;2.67;;;1.00;;
59024;SDS011;44806;48.008;13.666;2023-05-10T10:09:10;4.72;;;1.10;;
59024;SDS011;44806;48.008;13.666;2023-05-10T10:11:37;4.03;;;1.15;;
59024;SDS011;44806;48.008;13.666;2023-05-10T10:14:07;2.00;;;0.75;;
59024;SDS011;44806;48.008;13.666;2023-05-10T10:16:35;2.80;;;0.65;;
59024;SDS011;44806;48.008;13.666;2023-05-10T10:19:02;2.92;;;0.90;;
59024;SDS011;44806;48.008;13.666;2023-05-10T10:21:29;3.70;;;1.15;;
59024;SDS011;44806;48.008;13.666;2023-05-10T10:23:56;2.53;;;0.80;;
59024;SDS011;44806;48.008;13.666;2023-05-10T10:26:23;3.13;;;1.17;;
59024;SDS011;44806;48.008;13.666;2023-05-10T10:28:51;7.43;;;1.40;;
59024;SDS011;44806;48.008;13.666;2023-05-10T10:31:32;4.40;;;1.20;;
59024;SDS011;44806;48.008;13.666;2023-05-10T10:34:05;3.15;;;0.85;;
59024;SDS011;44806;48.008;13.666;2023-05-10T10:36:33;6.85;;;1.20;;
59024;SDS011;44806;48.008;13.666;2023-05-10T10:39:08;2.65;;;1.10;;
59024;SDS011;44806;48.008;13.666;2023-05-10T10:41:36;3.85;;;1.30;;
59024;SDS011;44806;48.008;13.666;2023-05-10T10:47:07;4.38;;;1.80;;
59024;SDS011;44806;48.008;13.666;2023-05-10T10:49:50;2.25;;;1.00;;
59024;SDS011;44806;48.008;13.666;2023-05-10T10:52:23;3.67;;;1.55;;
59024;SDS011;44806;48.008;13.666;2023-05-10T10:54:57;3.53;;;1.10;;
59024;SDS011;44806;48.008;13.666;2023-05-10T10:57:26;2.47;;;0.90;;
59024;SDS011;44806;48.008;13.666;2023-05-10T11:02:46;1.30;;;0.68;;
59024;SDS011;44806;48.008;13.666;2023-05-10T11:05:23;2.15;;;0.85;;
59024;SDS011;44806;48.008;13.666;2023-05-10T11:08:26;3.53;;;1.10;;
59024;SDS011;44806;48.008;13.666;2023-05-10T11:11:04;1.98;;;0.90;;
59024;SDS011;44806;48.008;13.666;2023-05-10T11:13:38;2.38;;;1.25;;
59024;SDS011;44806;48.008;13.666;2023-05-10T11:16:10;3.42;;;1.40;;
59024;SDS011;44806;48.008;13.666;2023-05-10T11:18:40;4.57;;;1.33;;
59024;SDS011;44806;48.008;13.666;2023-05-10T11:21:08;3.67;;;1.17;;
59024;SDS011;44806;48.008;13.666;2023-05-10T11:23:49;3.03;;;0.90;;
59024;SDS011;44806;48.008;13.666;2023-05-10T11:26:21;3.50;;;0.98;;
59024;SDS011;44806;48.008;13.666;2023-05-10T11:28:51;1.40;;;0.57;;
59024;SDS011;44806;48.008;13.666;2023-05-10T11:31:21;2.88;;;0.60;;
59024;SDS011;44806;48.008;13.666;2023-05-10T11:33:53;3.90;;;0.73;;
59024;SDS011;44806;48.008;13.666;2023-05-10T11:36:23;1.15;;;0.40;;
59024;SDS011;44806;48.008;13.666;2023-05-10T11:38:51;1.80;;;0.43;;
59024;SDS011;44806;48.008;13.666;2023-05-10T11:41:18;1.60;;;0.50;;
59024;SDS011;44806;48.008;13.666;2023-05-10T11:43:49;1.95;;;0.90;;
59024;SDS011;44806;48.008;13.666;2023-05-10T11:46:18;3.92;;;1.17;;
59024;SDS011;44806;48.008;13.666;2023-05-10T11:48:46;2.33;;;0.95;;
59024;SDS011;44806;48.008;13.666;2023-05-10T11:51:19;4.32;;;1.40;;
59024;SDS011;44806;48.008;13.666;2023-05-10T11:53:46;4.03;;;1.35;;
59024;SDS011;44806;48.008;13.666;2023-05-10T11:56:15;4.15;;;1.00;;
59024;SDS011;44806;48.008;13.666;2023-05-10T11:58:42;2.78;;;1.25;;
59024;SDS011;44806;48.008;13.666;2023-05-10T12:01:09;4.70;;;1.25;;
59024;SDS011;44806;48.008;13.666;2023-05-10T12:03:36;2.95;;;1.00;;
59024;SDS011;44806;48.008;13.666;2023-05-10T12:06:04;2.33;;;0.75;;
59024;SDS011;44806;48.008;13.666;2023-05-10T12:08:34;3.10;;;1.08;;
59024;SDS011;44806;48.008;13.666;2023-05-10T12:11:04;3.78;;;1.33;;
59024;SDS011;44806;48.008;13.666;2023-05-10T12:13:36;5.13;;;1.65;;
59024;SDS011;44806;48.008;13.666;2023-05-10T12:16:12;3.67;;;1.52;;
59024;SDS011;44806;48.008;13.666;2023-05-10T12:18:40;2.42;;;1.10;;
59024;SDS011;44806;48.008;13.666;2023-05-10T12:21:09;5.55;;;1.25;;
59024;SDS011;44806;48.008;13.666;2023-05-10T12:23:38;2.45;;;1.00;;
59024;SDS011;44806;48.008;13.666;2023-05-10T12:26:05;3.90;;;1.30;;
59024;SDS011;44806;48.008;13.666;2023-05-10T12:28:34;2.78;;;1.27;;
59024;SDS011;44806;48.008;13.666;2023-05-10T12:31:03;2.83;;;1.00;;
59024;SDS011;44806;48.008;13.666;2023-05-10T12:33:37;4.00;;;1.23;;
59024;SDS011;44806;48.008;13.666;2023-05-10T12:36:06;4.55;;;1.67;;
59024;SDS011;44806;48.008;13.666;2023-05-10T12:38:35;3.35;;;1.40;;
59024;SDS011;44806;48.008;13.666;2023-05-10T12:41:05;2.53;;;0.93;;
59024;SDS011;44806;48.008;13.666;2023-05-10T12:43:33;2.38;;;0.90;;
59024;SDS011;44806;48.008;13.666;2023-05-10T12:46:04;1.40;;;0.50;;
59024;SDS011;44806;48.008;13.666;2023-05-10T12:48:32;1.38;;;0.70;;
59024;SDS011;44806;48.008;13.666;2023-05-10T12:51:00;0.80;;;0.40;;
59024;SDS011;44806;48.008;13.666;2023-05-10T12:53:27;1.45;;;0.70;;
59024;SDS011;44806;48.008;13.666;2023-05-10T12:55:54;0.93;;;0.40;;
59024;SDS011;44806;48.008;13.666;2023-05-10T12:58:23;1.33;;;0.45;;
59024;SDS011;44806;48.008;13.666;2023-05-10T13:00:50;0.93;;;0.40;;
59024;SDS011;44806;48.008;13.666;2023-05-10T13:03:17;1.35;;;0.40;;
59024;SDS011;44806;48.008;13.666;2023-05-10T13:05:45;0.75;;;0.45;;
59024;SDS011;44806;48.008;13.666;2023-05-10T13:08:12;0.88;;;0.30;;
59024;SDS011;44806;48.008;13.666;2023-05-10T13:10:39;1.08;;;0.38;;
59024;SDS011;44806;48.008;13.666;2023-05-10T13:13:05;0.80;;;0.40;;
59024;SDS011;44806;48.008;13.666;2023-05-10T13:15:34;0.82;;;0.30;;
59024;SDS011;44806;48.008;13.666;2023-05-10T13:18:01;1.60;;;0.38;;
59024;SDS011;44806;48.008;13.666;2023-05-10T13:20:28;7.32;;;0.50;;
59024;SDS011;44806;48.008;13.666;2023-05-10T13:22:55;2.05;;;0.60;;
59024;SDS011;44806;48.008;13.666;2023-05-10T13:25:22;2.75;;;0.80;;
59024;SDS011;44806;48.008;13.666;2023-05-10T13:27:49;3.00;;;0.68;;
59024;SDS011;44806;48.008;13.666;2023-05-10T13:30:16;2.45;;;1.08;;
59024;SDS011;44806;48.008;13.666;2023-05-10T13:32:44;3.22;;;1.08;;
59024;SDS011;44806;48.008;13.666;2023-05-10T13:35:12;2.25;;;1.00;;
59024;SDS011;44806;48.008;13.666;2023-05-10T13:37:38;5.90;;;1.10;;
59024;SDS011;44806;48.008;13.666;2023-05-10T13:40:06;2.72;;;1.00;;
59024;SDS011;44806;48.008;13.666;2023-05-10T13:42:33;4.15;;;1.40;;
59024;SDS011;44806;48.008;13.666;2023-05-10T13:45:00;4.72;;;1.73;;
59024;SDS011;44806;48.008;13.666;2023-05-10T13:47:27;3.85;;;1.40;;
59024;SDS011;44806;48.008;13.666;2023-05-10T13:49:56;3.15;;;1.33;;
59024;SDS011;44806;48.008;13.666;2023-05-10T13:52:23;2.35;;;0.98;;
59024;SDS011;44806;48.008;13.666;2023-05-10T13:54:50;2.65;;;0.80;;
59024;SDS011;44806;48.008;13.666;2023-05-10T13:57:19;1.92;;;0.90;;
59024;SDS011;44806;48.008;13.666;2023-05-10T13:59:46;2.05;;;0.82;;
59024;SDS011;44806;48.008;13.666;2023-05-10T14:02:14;2.88;;;1.10;;
59024;SDS011;44806;48.008;13.666;2023-05-10T14:04:40;2.35;;;0.77;;
59024;SDS011;44806;48.008;13.666;2023-05-10T14:07:09;3.88;;;1.13;;
59024;SDS011;44806;48.008;13.666;2023-05-10T14:09:36;2.95;;;1.20;;
59024;SDS011;44806;48.008;13.666;2023-05-10T14:12:03;3.15;;;1.45;;
59024;SDS011;44806;48.008;13.666;2023-05-10T14:14:29;3.00;;;1.13;;
59024;SDS011;44806;48.008;13.666;2023-05-10T14:16:56;3.83;;;1.55;;
59024;SDS011;44806;48.008;13.666;2023-05-10T14:19:24;3.42;;;1.25;;
59024;SDS011;44806;48.008;13.666;2023-05-10T14:21:51;3.13;;;1.27;;
59024;SDS011;44806;48.008;13.666;2023-05-10T14:24:20;3.67;;;1.13;;
59024;SDS011;44806;48.008;13.666;2023-05-10T14:26:47;2.17;;;1.00;;
59024;SDS011;44806;48.008;13.666;2023-05-10T14:29:14;2.17;;;0.82;;
59024;SDS011;44806;48.008;13.666;2023-05-10T14:31:41;2.65;;;1.05;;
59024;SDS011;44806;48.008;13.666;2023-05-10T14:34:08;2.53;;;0.90;;
59024;SDS011;44806;48.008;13.666;2023-05-10T14:36:34;2.25;;;0.77;;
59024;SDS011;44806;48.008;13.666;2023-05-10T14:39:01;2.67;;;1.00;;
59024;SDS011;44806;48.008;13.666;2023-05-10T14:41:30;3.35;;;1.35;;
59024;SDS011;44806;48.008;13.666;2023-05-10T14:43:57;2.97;;;1.27;;
59024;SDS011;44806;48.008;13.666;2023-05-10T14:46:24;3.30;;;1.10;;
59024;SDS011;44806;48.008;13.666;2023-05-10T14:48:51;2.90;;;1.15;;
59024;SDS011;44806;48.008;13.666;2023-05-10T14:51:18;3.42;;;0.80;;
59024;SDS011;44806;48.008;13.666;2023-05-10T14:53:47;1.70;;;0.70;;